Aérodrome :







RETROUVEZ-NOUS SUR...

 
LOGIN :

S'inscrire | Disclaimer

   EN    FR    IT 

 









Légende :    VFR   VFR Marginal   IFR   IFR Intensif   IFR Très Intensif
Visi : 
Plafond : 
>= 8 km
>= 3000ft
5 à 8 km
1000 à 3000 ft
1500m à 5 km
500 à 1000 ft
800 à 1500m
200 à 500 ft
< 800m
< 200 ft
Symboles :   Orages  Brouillard  Fortes neiges  Fortes précipitations  Vent > 20 kt






- Altitude de l'aérodrome : 501 ft
- Code IATA : YWB


CYKG - Kangiqsujuaq (Wakeham Bay)

DERNIER METAR :
  • 171700Z 19017G22KT 15SM DRSA FEW020 OVC080 M08/M13 A2955 RMK SC1AS8 SC TR SLP022

METARs EXPIRÉS :
  • 171600Z 20022G28KT 15SM DRSN FEW025 OVC079 M08/M12 A2955 RMK SC1AS8 SC TR SLP025
  • 171500Z 24010KT 15SM FEW025 BKN078 OVC092 M08/M12 A2960 RMK SC1AS5AS3 SC TR SLP041

TAF TAF CYKG
Valide du 17 à 15h jusqu'au 17 à 22h UTC


171439Z 1715/1722 24015G25KT P6SM FEW020 BKN080 OVC100
TEMPO 1715/1717 4SM -SN BLSN BKN020 OVC080
BECMG 1715/1717 23020G30KT
FM171700 23020G30KT 6SM -SN DRSN SCT020 BKN050 OVC080
TEMPO 1717/1722 11/2SM -SN BLSN BKN020 OVC050 RMK NXT FCST WILL BE ISSUED AT 181445Z



MET'MAP, la Météo Aéronautique d'un coup d'oeil ! - Copyright ORBIFLY Décembre 2007 - Disclaimer

ORBIFLY MET'MAP TEAM :

Programmation & Développement : Alexandra Zaïnal
Conception & Développement : Baudouin d'Aumeries
Co-Programmation & Développement : Marc-Olivier Méhu
Soutien technique & logistique : Manuel Goepfert

Contact : metmap@orbifly.com




SOURCES & CREDITS :

   NOAA